Flight Track Log - Related Links

Times and Time Zones

All times are in EDT time to prevent confusion due to time zone crossing. See the DAL2365 flight status page for this flight to view local times or setup timezone preferences in your user account.

Time Position Orientation Groundspeed Altitude Reporting Facility
EDT Latitude Longitude Course Direction KTS MPH feet Rate Location/Type
Sun 11:47:50 AM 33.9400 -118.3475 260° West 190 219 2,300  Level Los Angeles Center
Sun 11:48:52 AM 33.9386 -118.2711 91° East 227 261 4,500 2,226 Climbing Los Angeles Center
Sun 11:49:54 AM 33.9292 -118.1842 97° East 252 290 6,900 1,645 Climbing Los Angeles Center
Sun 11:50:00 AM 33.9000 -118.7919 270° West  Level FlightAware Approximate
Sun 11:50:56 AM 33.8700 -118.1897 184° South 257 296 7,900  Level Los Angeles Center
Sun 11:51:00 AM 33.8813 -118.9245 264° West  Level FlightAware Approximate
Sun 11:51:57 AM 33.8436 -118.2925 253° West 283 326 10,900  Level Los Angeles Center
Sun 11:52:00 AM 33.8701 -119.0594 264° West  Level FlightAware Approximate
Sun 11:52:59 AM 33.8550 -118.3975 277° West 334 384 12,500  Level Los Angeles Center
Sun 11:53:00 AM 33.8651 -119.1946 260° West  Level FlightAware Approximate
Sun 11:54:01 AM 33.8686 -118.5269 277° West 375 432 14,500  Level Los Angeles Center
Sun 11:55:03 AM 33.8647 -118.6622 268° West 376 433 17,300 2,585 Climbing Los Angeles Center
Sun 11:56:04 AM 33.8544 -118.7953 265° West 383 441 19,800 2,195 Climbing Los Angeles Center
Sun 11:57:06 AM 33.8431 -118.9267 264° West 396 456 21,800 1,790 Climbing Los Angeles Center
Sun 11:58:08 AM 33.8317 -119.0647 264° West 416 479 23,500 1,645 Climbing Los Angeles Center
Sun 11:59:10 AM 33.8192 -119.2053 264° West 422 486 25,200 1,610 Climbing Los Angeles Center
Sun 12:00:11 PM 33.8006 -119.3497 261° West 436 502 26,800 1,512 Climbing Los Angeles Center
Sun 12:01:13 PM 33.7414 -119.4817 242° Southwest 448 516 28,300 1,935 Climbing Los Angeles Center
Sun 12:02:15 PM 33.6861 -119.6142 243° Southwest 446 513 30,800 2,293 Climbing Los Angeles Center
Sun 12:03:16 PM 33.6333 -119.7708 248° West 428 493 33,000 1,951 Climbing Los Angeles Center
Sun 12:04:18 PM 33.6194 -119.9092 263° West 421 484 34,800 968 Climbing Los Angeles Center
Sun 12:05:20 PM 33.6056 -120.0453 263° West 414 476 35,000 98 Climbing Los Angeles Center
Sun 12:06:21 PM 33.5911 -120.1919 263° West 413 475 35,000  Level Los Angeles Center
Sun 12:07:23 PM 33.5769 -120.3286 263° West 413 475 35,000  Level Los Angeles Center
Sun 12:08:25 PM 33.5625 -120.4658 263° West 413 475 35,000  Level Los Angeles Center
Sun 12:09:27 PM 33.5481 -120.6056 263° West 419 482 35,000  Level Los Angeles Center
Sun 12:10:28 PM 33.5333 -120.7447 263° West 419 482 35,000  Level Los Angeles Center
Sun 12:11:30 PM 33.5172 -120.8839 262° West 420 483 35,000  Level Los Angeles Center
Sun 12:12:32 PM 33.5031 -121.0242 263° West 422 486 35,000  Level Los Angeles Center
Sun 12:13:34 PM 33.4869 -121.1642 262° West 425 489 35,000  Level Los Angeles Center
Sun 12:14:36 PM 33.4681 -121.3331 262° West 425 489 35,000  Level Los Angeles Center
Sun 12:15:38 PM 33.4525 -121.4761 263° West 430 495 35,000  Level Los Angeles Center
Sun 12:16:40 PM 33.4367 -121.6172 262° West 429 494 35,000  Level Los Angeles Center
Sun 12:17:41 PM 33.4211 -121.7608 263° West 434 499 35,000  Level Los Angeles Center
Sun 12:18:43 PM 33.4039 -121.9031 262° West 432 497 35,000  Level Los Angeles Center
Sun 12:19:45 PM 33.3869 -122.0453 262° West 432 497 35,000  Level Los Angeles Center
Sun 12:20:47 PM 33.3664 -122.2156 262° West 431 496 35,000  Level Los Angeles Center
Sun 12:21:49 PM 33.3511 -122.3572 263° West 431 496 35,000  Level Los Angeles Center
Sun 12:22:51 PM 33.3333 -122.4967 261° West 428 493 35,000  Level Los Angeles Center
Sun 12:24:00 PM 33.3134 -122.6496 261° West  Level FlightAware Approximate
Sun 12:31:00 PM 33.1882 -123.5793 261° West  Level FlightAware Approximate
Sun 12:32:00 PM 33.1697 -123.7118 261° West  Level FlightAware Approximate
Sun 12:33:00 PM 33.1511 -123.8444 261° West  Level FlightAware Approximate
Sun 12:34:00 PM 33.1324 -123.9768 260° West  Level FlightAware Approximate
Sun 12:35:00 PM 33.1135 -124.1093 260° West  Level FlightAware Approximate
Sun 12:36:00 PM 33.0945 -124.2416 260° West  Level FlightAware Approximate
Sun 12:37:00 PM 33.0753 -124.3739 260° West  Level FlightAware Approximate
Sun 12:38:00 PM 33.0667 -124.5073 270° West  Level FlightAware Approximate
Sun 12:38:29 PM 33.0667 -124.5167 255° West 431 496 35,000  Level Oakland Oceanic (ODAPS)
Sun 12:39:00 PM 33.0397 -124.6373 255° West  Level FlightAware Approximate
Sun 12:39:22 PM 33.0000 -124.8000 255° West 432 497 35,000  Level Oakland Oceanic (ODAPS)
Sun 12:40:00 PM 33.0106 -124.7669 255° West  Level FlightAware Approximate
Sun 12:41:00 PM 32.9813 -124.8964 255° West  Level FlightAware Approximate
Sun 12:42:00 PM 32.9521 -125.0250 255° West  Level FlightAware Approximate
Sun 12:43:00 PM 32.9231 -125.1523 255° West  Level FlightAware Approximate
Sun 12:44:00 PM 32.8501 -125.4695 255° West 431 496 35,000  Level FlightAware Transoceanic
Sun 12:45:00 PM 32.8101 -125.6296 255° West 432 497 35,000  Level FlightAware Transoceanic
Sun 12:45:00 PM 32.8333 -125.5667 254° West 434 499 35,000  Level Oakland Oceanic (ODAPS)
Sun 12:46:00 PM 32.7779 -125.7676 254° West 432 497 35,000  Level FlightAware Transoceanic
Sun 12:47:00 PM 32.7455 -125.9054 254° West 432 497 35,000  Level FlightAware Transoceanic
Sun 12:48:00 PM 32.7131 -126.0431 254° West 432 497 35,000  Level FlightAware Transoceanic
Sun 12:49:00 PM 32.6804 -126.1808 254° West 432 497 35,000  Level FlightAware Transoceanic
Sun 12:50:00 PM 32.6476 -126.3183 254° West 432 497 35,000  Level FlightAware Transoceanic
Sun 12:51:00 PM 32.6354 -126.4009 254° West 434 499 35,000  Level FlightAware Transoceanic
Sun 12:52:00 PM 32.6019 -126.5396 254° West 434 499 35,000  Level FlightAware Transoceanic
Sun 12:53:00 PM 32.5682 -126.6782 254° West 434 499 35,000  Level FlightAware Transoceanic
Sun 12:54:00 PM 32.5344 -126.8166 254° West 434 499 35,000  Level FlightAware Transoceanic
Sun 12:55:00 PM 32.5004 -126.9550 254° West 434 499 35,000  Level FlightAware Transoceanic
Sun 12:56:00 PM 32.4663 -127.0933 254° West 434 499 35,000  Level FlightAware Transoceanic
Sun 12:57:00 PM 32.4320 -127.2314 254° West 434 499 35,000  Level FlightAware Transoceanic
Sun 12:58:00 PM 32.3976 -127.3695 254° West 434 499 35,000  Level FlightAware Transoceanic
Sun 12:58:52 PM 32.3667 -127.4833 253° West 431 496 35,000  Level Oakland Oceanic (ODAPS)
Sun 12:59:00 PM 32.3630 -127.5074 253° West 434 499 35,000  Level FlightAware Transoceanic
Sun 01:00:00 PM 32.3283 -127.6453 253° West 434 499 35,000  Level FlightAware Transoceanic
Sun 01:01:00 PM 32.2934 -127.7830 253° West 434 499 35,000  Level FlightAware Transoceanic
Sun 01:02:00 PM 32.2583 -127.9206 253° West 434 499 35,000  Level FlightAware Transoceanic
Sun 01:03:00 PM 32.2231 -128.0582 253° West 434 499 35,000  Level FlightAware Transoceanic
Sun 01:04:00 PM 32.1878 -128.1956 253° West 434 499 35,000  Level FlightAware Transoceanic
Sun 01:05:00 PM 32.1555 -128.3131 253° West 431 496 35,000  Level FlightAware Transoceanic
Sun 01:06:00 PM 32.1198 -128.4510 253° West 431 496 35,000  Level FlightAware Transoceanic
Sun 01:07:00 PM 32.0839 -128.5888 253° West 431 496 35,000  Level FlightAware Transoceanic
Sun 01:08:00 PM 32.0479 -128.7265 253° West 431 496 35,000  Level FlightAware Transoceanic
Sun 01:09:00 PM 32.0117 -128.8641 253° West 431 496 35,000  Level FlightAware Transoceanic
Sun 01:10:00 PM 31.9754 -129.0016 253° West 431 496 35,000  Level FlightAware Transoceanic
Sun 01:11:00 PM 31.9390 -129.1390 253° West 431 496 35,000  Level FlightAware Transoceanic
Sun 01:12:00 PM 31.9024 -129.2763 253° West 431 496 35,000  Level FlightAware Transoceanic
Sun 01:12:44 PM 31.8833 -129.3500 252° West 430 495 35,000  Level Oakland Oceanic (ODAPS)
Sun 01:13:00 PM 31.8656 -129.4134 252° West 431 496 35,000  Level FlightAware Transoceanic
Sun 01:14:00 PM 31.8287 -129.5505 252° West 431 496 35,000  Level FlightAware Transoceanic
Sun 01:15:00 PM 31.7916 -129.6874 252° West 431 496 35,000  Level FlightAware Transoceanic
Sun 01:16:00 PM 31.7544 -129.8242 252° West 431 496 35,000  Level FlightAware Transoceanic
Sun 01:17:00 PM 31.7171 -129.9610 252° West 431 496 35,000  Level FlightAware Transoceanic
Sun 01:18:00 PM 31.6796 -130.0976 252° West 431 496 35,000  Level FlightAware Transoceanic
Sun 01:19:00 PM 31.6547 -130.1899 252° West 430 495 35,000  Level FlightAware Transoceanic
Sun 01:20:00 PM 31.6160 -130.3295 252° West 430 495 35,000  Level FlightAware Transoceanic
Sun 01:21:00 PM 31.5772 -130.4689 252° West 430 495 35,000  Level FlightAware Transoceanic
Sun 01:22:00 PM 31.5383 -130.6083 252° West 430 495 35,000  Level FlightAware Transoceanic
Sun 01:23:00 PM 31.4992 -130.7475 252° West 430 495 35,000  Level FlightAware Transoceanic
Sun 01:24:00 PM 31.4599 -130.8866 252° West 430 495 35,000  Level FlightAware Transoceanic
Sun 01:25:00 PM 31.4205 -131.0256 252° West 430 495 35,000  Level FlightAware Transoceanic
Sun 01:26:00 PM 31.3810 -131.1645 252° West 430 495 35,000  Level FlightAware Transoceanic
Sun 01:26:36 PM 31.3667 -131.2333 251° West 431 496 35,000  Level Oakland Oceanic (ODAPS)
Sun 01:27:00 PM 31.3413 -131.3032 251° West 430 495 35,000  Level FlightAware Transoceanic
Sun 01:28:00 PM 31.3015 -131.4419 251° West 430 495 35,000  Level FlightAware Transoceanic
Sun 01:29:00 PM 31.2615 -131.5804 251° West 430 495 35,000  Level FlightAware Transoceanic
Sun 01:30:00 PM 31.2213 -131.7188 251° West 430 495 35,000  Level FlightAware Transoceanic
Sun 01:31:00 PM 31.1810 -131.8571 251° West 430 495 35,000  Level FlightAware Transoceanic
Sun 01:32:00 PM 31.1385 -132.0051 251° West 431 496 35,000  Level FlightAware Transoceanic
Sun 01:33:00 PM 31.1000 -132.1333 251° West 431 496 35,000  Level FlightAware Transoceanic
Sun 01:33:37 PM 31.1000 -132.1333 251° West 429 494 35,000  Level Oakland Oceanic (ODAPS)
Sun 01:34:00 PM 31.0607 -132.2668 251° West 431 496 35,000  Level FlightAware Transoceanic
Sun 01:35:00 PM 31.0214 -132.4001 251° West 431 496 35,000  Level FlightAware Transoceanic
Sun 01:36:00 PM 30.9818 -132.5333 251° West 431 496 35,000  Level FlightAware Transoceanic
Sun 01:37:00 PM 30.9422 -132.6664 251° West 431 496 35,000  Level FlightAware Transoceanic
Sun 01:38:00 PM 30.9024 -132.7994 251° West 431 496 35,000  Level FlightAware Transoceanic
Sun 01:39:00 PM 30.8625 -132.9323 251° West 431 496 35,000  Level FlightAware Transoceanic
Sun 01:40:00 PM 30.8273 -133.0487 251° West 429 494 35,000  Level FlightAware Transoceanic
Sun 01:40:28 PM 30.8333 -133.0500 251° West 423 487 35,000  Level Oakland Oceanic (ODAPS)
Sun 01:41:00 PM 30.7878 -133.1791 251° West 429 494 35,000  Level FlightAware Transoceanic
Sun 01:42:00 PM 30.7482 -133.3093 250° West 429 494 35,000  Level FlightAware Transoceanic
Sun 01:43:00 PM 30.7085 -133.4394 250° West 429 494 35,000  Level FlightAware Transoceanic
Sun 01:44:00 PM 30.6686 -133.5694 250° West 429 494 35,000  Level FlightAware Transoceanic
Sun 01:45:00 PM 30.6286 -133.6994 250° West 429 494 35,000  Level FlightAware Transoceanic
Sun 01:46:00 PM 30.5985 -133.8151 250° West 423 487 35,000  Level FlightAware Transoceanic
Sun 01:47:00 PM 30.5590 -133.9422 250° West 423 487 35,000  Level FlightAware Transoceanic
Sun 01:48:00 PM 30.5193 -134.0693 250° West 423 487 35,000  Level FlightAware Transoceanic
Sun 01:49:00 PM 30.4795 -134.1962 250° West 423 487 35,000  Level FlightAware Transoceanic
Sun 01:50:00 PM 30.4395 -134.3230 250° West 423 487 35,000  Level FlightAware Transoceanic
Sun 01:51:00 PM 30.3995 -134.4498 250° West 423 487 35,000  Level FlightAware Transoceanic
Sun 01:52:00 PM 30.3593 -134.5764 250° West 423 487 35,000  Level FlightAware Transoceanic
Sun 01:53:00 PM 30.3190 -134.7029 250° West 423 487 35,000  Level FlightAware Transoceanic
Sun 01:54:00 PM 30.2785 -134.8293 250° West 423 487 35,000  Level FlightAware Transoceanic
Sun 01:54:20 PM 30.2833 -134.8167 250° West 422 486 35,000  Level Oakland Oceanic (ODAPS)
Sun 01:55:00 PM 30.2380 -134.9557 250° West 423 487 35,000  Level FlightAware Transoceanic
Sun 01:56:00 PM 30.1973 -135.0819 250° West 423 487 35,000  Level FlightAware Transoceanic
Sun 01:57:00 PM 30.1565 -135.2080 249° West 423 487 35,000  Level FlightAware Transoceanic
Sun 01:58:00 PM 30.1156 -135.3340 249° West 423 487 35,000  Level FlightAware Transoceanic
Sun 01:59:00 PM 30.0746 -135.4599 249° West 423 487 35,000  Level FlightAware Transoceanic
Sun 02:00:00 PM 30.0375 -135.5751 249° West 422 486 35,000  Level FlightAware Transoceanic
Sun 02:01:00 PM 29.9961 -135.7012 249° West 422 486 35,000  Level FlightAware Transoceanic
Sun 02:02:00 PM 29.9546 -135.8271 249° West 422 486 35,000  Level FlightAware Transoceanic
Sun 02:03:00 PM 29.9130 -135.9529 249° West 422 486 35,000  Level FlightAware Transoceanic
Sun 02:04:00 PM 29.8713 -136.0786 249° West 422 486 35,000  Level FlightAware Transoceanic
Sun 02:05:00 PM 29.8294 -136.2043 249° West 422 486 35,000  Level FlightAware Transoceanic
Sun 02:06:00 PM 29.7874 -136.3298 249° West 422 486 35,000  Level FlightAware Transoceanic
Sun 02:07:00 PM 29.7453 -136.4552 249° West 422 486 35,000  Level FlightAware Transoceanic
Sun 02:08:00 PM 29.7031 -136.5805 249° West 422 486 35,000  Level FlightAware Transoceanic
Sun 02:08:12 PM 29.7000 -136.5667 249° West 425 489 35,000  Level Oakland Oceanic (ODAPS)
Sun 02:09:00 PM 29.6607 -136.7057 249° West 422 486 35,000  Level FlightAware Transoceanic
Sun 02:10:00 PM 29.6183 -136.8308 249° West 422 486 35,000  Level FlightAware Transoceanic
Sun 02:11:00 PM 29.5757 -136.9558 249° West 422 486 35,000  Level FlightAware Transoceanic
Sun 02:12:00 PM 29.5330 -137.0806 249° West 422 486 35,000  Level FlightAware Transoceanic
Sun 02:13:00 PM 29.4902 -137.2054 248° West 422 486 35,000  Level FlightAware Transoceanic
Sun 02:14:00 PM 29.4450 -137.3199 249° West 425 489 35,000  Level FlightAware Transoceanic
Sun 02:15:00 PM 29.4021 -137.4451 248° West 425 489 35,000  Level FlightAware Transoceanic
Sun 02:16:00 PM 29.3591 -137.5701 248° West 425 489 35,000  Level FlightAware Transoceanic
Sun 02:17:00 PM 29.3160 -137.6951 248° West 425 489 35,000  Level FlightAware Transoceanic
Sun 02:18:00 PM 29.2727 -137.8199 248° West 425 489 35,000  Level FlightAware Transoceanic
Sun 02:19:00 PM 29.2294 -137.9447 248° West 425 489 35,000  Level FlightAware Transoceanic
Sun 02:20:00 PM 29.1859 -138.0693 248° West 425 489 35,000  Level FlightAware Transoceanic
Sun 02:21:00 PM 29.1423 -138.1938 248° West 425 489 35,000  Level FlightAware Transoceanic
Sun 02:22:00 PM 29.0986 -138.3183 248° West 425 489 35,000  Level FlightAware Transoceanic
Sun 02:22:04 PM 29.1000 -138.3333 248° West 431 496 35,000  Level Oakland Oceanic (ODAPS)
Sun 02:23:00 PM 29.0547 -138.4426 248° West 425 489 35,000  Level FlightAware Transoceanic
Sun 02:24:00 PM 29.0108 -138.5668 248° West 425 489 35,000  Level FlightAware Transoceanic
Sun 02:25:00 PM 28.9667 -138.6909 248° West 425 489 35,000  Level FlightAware Transoceanic
Sun 02:26:00 PM 28.9226 -138.8149 248° West 425 489 35,000  Level FlightAware Transoceanic
Sun 02:27:00 PM 28.8783 -138.9388 248° West 425 489 35,000  Level FlightAware Transoceanic
Sun 02:28:00 PM 28.8008 -139.1591 247° West 431 496 35,000  Level FlightAware Transoceanic
Sun 02:29:00 PM 28.7505 -139.2963 247° West 431 496 35,000  Level FlightAware Transoceanic
Sun 02:30:00 PM 28.7000 -139.4333 247° West 431 496 35,000  Level FlightAware Transoceanic
Sun 02:30:47 PM 28.7000 -139.4333 247° West 428 493 35,000  Level Oakland Oceanic (ODAPS)
Sun 02:31:00 PM 28.6547 -139.5565 247° West 431 496 35,000  Level FlightAware Transoceanic
Sun 02:32:00 PM 28.6093 -139.6795 247° West 431 496 35,000  Level FlightAware Transoceanic
Sun 02:33:00 PM 28.5637 -139.8024 247° West 431 496 35,000  Level FlightAware Transoceanic
Sun 02:34:00 PM 28.5181 -139.9252 247° West 431 496 35,000  Level FlightAware Transoceanic
Sun 02:35:00 PM 28.4724 -140.0480 247° West 431 496 35,000  Level FlightAware Transoceanic
Sun 02:35:56 PM 28.4500 -140.1000 247° West 427 491 35,000  Level Oakland Oceanic (ODAPS)
Sun 02:36:00 PM 28.4265 -140.1706 247° West 431 496 35,000  Level FlightAware Transoceanic
Sun 02:37:00 PM 28.3805 -140.2931 247° West 428 493 35,000  Level FlightAware Transoceanic
Sun 02:38:00 PM 28.3345 -140.4155 247° West 428 493 35,000  Level FlightAware Transoceanic
Sun 02:39:00 PM 28.2883 -140.5377 247° West 428 493 35,000  Level FlightAware Transoceanic
Sun 02:40:00 PM 28.2420 -140.6599 247° West 428 493 35,000  Level FlightAware Transoceanic
Sun 02:41:00 PM 28.1956 -140.7820 247° West 428 493 35,000  Level FlightAware Transoceanic
Sun 02:42:00 PM 28.1701 -140.8422 247° West 427 491 35,000  Level FlightAware Transoceanic
Sun 02:43:00 PM 28.1230 -140.9655 247° West 427 491 35,000  Level FlightAware Transoceanic
Sun 02:44:00 PM 28.0759 -141.0887 247° West 427 491 35,000  Level FlightAware Transoceanic
Sun 02:45:00 PM 28.0286 -141.2118 246° West 427 491 35,000  Level FlightAware Transoceanic
Sun 02:46:00 PM 27.9812 -141.3348 246° West 427 491 35,000  Level FlightAware Transoceanic
Sun 02:47:00 PM 27.9338 -141.4577 246° West 427 491 35,000  Level FlightAware Transoceanic
Sun 02:48:00 PM 27.8862 -141.5804 246° West 427 491 35,000  Level FlightAware Transoceanic
Sun 02:49:00 PM 27.8385 -141.7031 246° West 427 491 35,000  Level FlightAware Transoceanic
Sun 02:49:49 PM 27.7833 -141.8667 246° West 435 501 35,000  Level Oakland Oceanic (ODAPS)
Sun 02:50:00 PM 27.7906 -141.8257 246° West 427 491 35,000  Level FlightAware Transoceanic
Sun 02:51:00 PM 27.7427 -141.9481 246° West 427 491 35,000  Level FlightAware Transoceanic
Sun 02:52:00 PM 27.6947 -142.0705 246° West 427 491 35,000  Level FlightAware Transoceanic
Sun 02:53:00 PM 27.6466 -142.1927 246° West 427 491 35,000  Level FlightAware Transoceanic
Sun 02:54:00 PM 27.5983 -142.3148 246° West 427 491 35,000  Level FlightAware Transoceanic
Sun 02:55:00 PM 27.5500 -142.4369 246° West 427 491 35,000  Level FlightAware Transoceanic
Sun 02:56:00 PM 27.4870 -142.6135 246° West 435 501 35,000  Level FlightAware Transoceanic
Sun 02:57:00 PM 27.4372 -142.7376 246° West 435 501 35,000  Level FlightAware Transoceanic
Sun 02:58:00 PM 27.3873 -142.8615 246° West 435 501 35,000  Level FlightAware Transoceanic
Sun 02:59:00 PM 27.3373 -142.9854 246° West 435 501 35,000  Level FlightAware Transoceanic
Sun 03:00:00 PM 27.2872 -143.1091 245° Southwest 435 501 35,000  Level FlightAware Transoceanic
Sun 03:01:00 PM 27.2370 -143.2328 245° Southwest 435 501 35,000  Level FlightAware Transoceanic
Sun 03:02:00 PM 27.1867 -143.3563 245° Southwest 435 501 35,000  Level FlightAware Transoceanic
Sun 03:03:00 PM 27.1362 -143.4797 245° Southwest 435 501 35,000  Level FlightAware Transoceanic
Sun 03:03:48 PM 27.0833 -143.6167 245° Southwest 434 499 35,000  Level Oakland Oceanic (ODAPS)
Sun 03:04:00 PM 27.0857 -143.6030 245° Southwest 435 501 35,000  Level FlightAware Transoceanic
Sun 03:05:00 PM 27.0350 -143.7262 245° Southwest 435 501 35,000  Level FlightAware Transoceanic
Sun 03:06:00 PM 26.9843 -143.8492 245° Southwest 435 501 35,000  Level FlightAware Transoceanic
Sun 03:07:00 PM 26.9334 -143.9722 245° Southwest 435 501 35,000  Level FlightAware Transoceanic
Sun 03:08:00 PM 26.8825 -144.0951 245° Southwest 435 501 35,000  Level FlightAware Transoceanic
Sun 03:09:00 PM 26.8314 -144.2178 245° Southwest 435 501 35,000  Level FlightAware Transoceanic
Sun 03:10:00 PM 26.7273 -144.4720 245° Southwest 434 499 35,000  Level FlightAware Transoceanic
Sun 03:11:00 PM 26.6760 -144.5938 245° Southwest 434 499 35,000  Level FlightAware Transoceanic
Sun 03:12:00 PM 26.6246 -144.7154 245° Southwest 434 499 35,000  Level FlightAware Transoceanic
Sun 03:13:00 PM 26.5731 -144.8370 245° Southwest 434 499 35,000  Level FlightAware Transoceanic
Sun 03:14:00 PM 26.5215 -144.9584 245° Southwest 434 499 35,000  Level FlightAware Transoceanic
Sun 03:15:00 PM 26.4698 -145.0797 245° Southwest 434 499 35,000  Level FlightAware Transoceanic
Sun 03:16:00 PM 26.4180 -145.2009 244° Southwest 434 499 35,000  Level FlightAware Transoceanic
Sun 03:17:00 PM 26.3661 -145.3220 244° Southwest 434 499 35,000  Level FlightAware Transoceanic
Sun 03:17:32 PM 26.3833 -145.3167 244° Southwest 416 479 35,000  Level Oakland Oceanic (ODAPS)
Sun 03:18:00 PM 26.3141 -145.4430 244° Southwest 434 499 35,000  Level FlightAware Transoceanic
Sun 03:19:00 PM 26.2620 -145.5639 244° Southwest 434 499 35,000  Level FlightAware Transoceanic
Sun 03:20:00 PM 26.2098 -145.6847 244° Southwest 434 499 35,000  Level FlightAware Transoceanic
Sun 03:21:00 PM 26.1575 -145.8053 244° Southwest 434 499 35,000  Level FlightAware Transoceanic
Sun 03:22:00 PM 26.1051 -145.9259 244° Southwest 434 499 35,000  Level FlightAware Transoceanic
Sun 03:23:00 PM 26.0526 -146.0463 244° Southwest 434 499 35,000  Level FlightAware Transoceanic
Sun 03:24:00 PM 26.0482 -146.0607 243° Southwest 416 479 35,000  Level FlightAware Transoceanic
Sun 03:25:00 PM 26.0000 -146.1667 244° Southwest 416 479 35,000  Level FlightAware Transoceanic
Sun 03:26:00 PM 25.9492 -146.2840 244° Southwest 416 479 35,000  Level FlightAware Transoceanic
Sun 03:27:00 PM 25.8983 -146.4012 244° Southwest 416 479 35,000  Level FlightAware Transoceanic
Sun 03:28:00 PM 25.8472 -146.5182 244° Southwest 416 479 35,000  Level FlightAware Transoceanic
Sun 03:29:00 PM 25.7962 -146.6353 244° Southwest 416 479 35,000  Level FlightAware Transoceanic
Sun 03:30:00 PM 25.7449 -146.7521 244° Southwest 416 479 35,000  Level FlightAware Transoceanic
Sun 03:31:00 PM 25.6937 -146.8689 244° Southwest 416 479 35,000  Level FlightAware Transoceanic
Sun 03:31:24 PM 25.6833 -146.9167 244° Southwest 408 470 35,000  Level Oakland Oceanic (ODAPS)
Sun 03:32:00 PM 25.6423 -146.9856 244° Southwest 416 479 35,000  Level FlightAware Transoceanic
Sun 03:33:00 PM 25.5908 -147.1022 244° Southwest 416 479 35,000  Level FlightAware Transoceanic
Sun 03:34:00 PM 25.5392 -147.2187 244° Southwest 416 479 35,000  Level FlightAware Transoceanic
Sun 03:35:00 PM 25.4876 -147.3351 244° Southwest 416 479 35,000  Level FlightAware Transoceanic
Sun 03:36:00 PM 25.4358 -147.4514 244° Southwest 416 479 35,000  Level FlightAware Transoceanic
Sun 03:37:00 PM 25.3808 -147.5959 244° Southwest 408 470 35,000  Level FlightAware Transoceanic
Sun 03:38:00 PM 25.3300 -147.7087 244° Southwest 408 470 35,000  Level FlightAware Transoceanic
Sun 03:39:00 PM 25.2792 -147.8215 243° Southwest 408 470 35,000  Level FlightAware Transoceanic
Sun 03:40:00 PM 25.2283 -147.9342 243° Southwest 408 470 35,000  Level FlightAware Transoceanic
Sun 03:41:00 PM 25.1773 -148.0468 243° Southwest 408 470 35,000  Level FlightAware Transoceanic
Sun 03:42:00 PM 25.1263 -148.1593 243° Southwest 408 470 35,000  Level FlightAware Transoceanic
Sun 03:43:00 PM 25.0751 -148.2717 243° Southwest 408 470 35,000  Level FlightAware Transoceanic
Sun 03:44:00 PM 25.0239 -148.3840 243° Southwest 408 470 35,000  Level FlightAware Transoceanic
Sun 03:45:00 PM 24.9725 -148.4962 243° Southwest 408 470 35,000  Level FlightAware Transoceanic
Sun 03:45:16 PM 24.9833 -148.4833 243° Southwest 408 470 35,000  Level Oakland Oceanic (ODAPS)
Sun 03:46:00 PM 24.9211 -148.6083 243° Southwest 408 470 35,000  Level FlightAware Transoceanic
Sun 03:47:00 PM 24.8696 -148.7203 243° Southwest 408 470 35,000  Level FlightAware Transoceanic
Sun 03:48:00 PM 24.8181 -148.8322 243° Southwest 408 470 35,000  Level FlightAware Transoceanic
Sun 03:49:00 PM 24.7664 -148.9441 243° Southwest 408 470 35,000  Level FlightAware Transoceanic
Sun 03:50:00 PM 24.7147 -149.0558 243° Southwest 408 470 35,000  Level FlightAware Transoceanic
Sun 03:51:00 PM 24.6719 -149.1568 243° Southwest 408 470 35,000  Level FlightAware Transoceanic
Sun 03:52:00 PM 24.6197 -149.2687 243° Southwest 408 470 35,000  Level FlightAware Transoceanic
Sun 03:53:00 PM 24.5675 -149.3805 243° Southwest 408 470 35,000  Level FlightAware Transoceanic
Sun 03:54:00 PM 24.5151 -149.4922 243° Southwest 408 470 35,000  Level FlightAware Transoceanic
Sun 03:55:00 PM 24.4627 -149.6039 243° Southwest 408 470 35,000  Level FlightAware Transoceanic
Sun 03:56:00 PM 24.4101 -149.7154 243° Southwest 408 470 35,000  Level FlightAware Transoceanic
Sun 03:57:00 PM 24.3575 -149.8268 243° Southwest 408 470 35,000  Level FlightAware Transoceanic
Sun 03:58:00 PM 24.3048 -149.9382 243° Southwest 408 470 35,000  Level FlightAware Transoceanic
Sun 03:59:00 PM 24.2521 -150.0495 242° Southwest 408 470 35,000  Level FlightAware Transoceanic
Sun 03:59:08 PM 24.2500 -150.0500 243° Southwest 417 480 35,000  Level Oakland Oceanic (ODAPS)
Sun 04:00:00 PM 24.1992 -150.1606 242° Southwest 408 470 35,000  Level FlightAware Transoceanic
Sun 04:01:00 PM 24.1463 -150.2717 242° Southwest 408 470 35,000  Level FlightAware Transoceanic
Sun 04:02:00 PM 24.0933 -150.3827 242° Southwest 408 470 35,000  Level FlightAware Transoceanic
Sun 04:03:00 PM 24.0402 -150.4936 242° Southwest 408 470 35,000  Level FlightAware Transoceanic
Sun 04:04:00 PM 23.9870 -150.6044 242° Southwest 408 470 35,000  Level FlightAware Transoceanic
Sun 04:05:00 PM 23.9338 -150.7151 242° Southwest 408 470 35,000  Level FlightAware Transoceanic
Sun 04:06:00 PM 23.8790 -150.8261 242° Southwest 417 480 35,000  Level FlightAware Transoceanic
Sun 04:07:00 PM 23.8257 -150.9366 242° Southwest 417 480 35,000  Level FlightAware Transoceanic
Sun 04:08:00 PM 23.7723 -151.0470 242° Southwest 417 480 35,000  Level FlightAware Transoceanic
Sun 04:09:00 PM 23.7188 -151.1573 242° Southwest 417 480 35,000  Level FlightAware Transoceanic
Sun 04:10:00 PM 23.6653 -151.2675 242° Southwest 417 480 35,000  Level FlightAware Transoceanic
Sun 04:11:00 PM 23.6117 -151.3777 242° Southwest 417 480 35,000  Level FlightAware Transoceanic
Sun 04:12:00 PM 23.5579 -151.4877 242° Southwest 417 480 35,000  Level FlightAware Transoceanic
Sun 04:13:00 PM 23.5042 -151.5977 242° Southwest 417 480 35,000  Level FlightAware Transoceanic
Sun 04:13:06 PM 23.5000 -151.6333 241° Southwest 416 479 35,000  Level Oakland Oceanic (ODAPS)
Sun 04:14:00 PM 23.4503 -151.7076 242° Southwest 417 480 35,000  Level FlightAware Transoceanic
Sun 04:15:00 PM 23.3964 -151.8174 242° Southwest 417 480 35,000  Level FlightAware Transoceanic
Sun 04:16:00 PM 23.3424 -151.9270 242° Southwest 417 480 35,000  Level FlightAware Transoceanic
Sun 04:17:00 PM 23.2883 -152.0367 242° Southwest 417 480 35,000  Level FlightAware Transoceanic
Sun 04:17:20 PM 23.2500 -152.1000 242° Southwest 415 478 35,000  Level Oakland Oceanic (ODAPS)
Sun 04:18:00 PM 23.2341 -152.1462 242° Southwest 417 480 35,000  Level FlightAware Transoceanic
Sun 04:19:00 PM 23.1798 -152.2556 242° Southwest 417 480 35,000  Level FlightAware Transoceanic
Sun 04:20:00 PM 23.0774 -152.4650 241° Southwest 416 479 35,000  Level FlightAware Transoceanic
Sun 04:21:00 PM 23.0167 -152.5833 242° Southwest 416 479 35,000  Level FlightAware Transoceanic
Sun 04:21:55 PM 22.9833 -152.6333 242° Southwest 430 495 35,000  Level Honolulu Center
Sun 04:22:00 PM 22.9629 -152.6921 242° Southwest 416 479 35,000  Level FlightAware Transoceanic
Sun 04:22:55 PM 22.9333 -152.7500 245° Southwest 420 483 35,000  Level Honolulu Center
Sun 04:23:00 PM 22.9091 -152.8009 242° Southwest 416 479 35,000  Level FlightAware Transoceanic
Sun 04:23:56 PM 22.8833 -152.8667 245° Southwest 420 483 35,000  Level Honolulu Center
Sun 04:24:00 PM 22.8552 -152.9095 242° Southwest 415 478 35,000  Level FlightAware Transoceanic
Sun 04:24:55 PM 22.8500 -153.0000 255° West 430 495 35,000  Level Honolulu Center
Sun 04:25:00 PM 22.8012 -153.0180 242° Southwest 415 478 35,000  Level FlightAware Transoceanic
Sun 04:26:00 PM 22.7471 -153.1265 242° Southwest 415 478 35,000  Level FlightAware Transoceanic
Sun 04:26:56 PM 22.7833 -153.2500 254° West 430 495 35,000  Level Honolulu Center
Sun 04:27:00 PM 22.6930 -153.2349 242° Southwest 415 478 35,000  Level FlightAware Transoceanic
Sun 04:27:56 PM 22.7500 -153.3667 253° West 420 483 35,000  Level Honolulu Center
Sun 04:29:00 PM 22.6705 -153.4665 229° Southwest  Level FlightAware Approximate
Sun 04:29:56 PM 22.6667 -153.6000 229° Southwest 430 495 35,000  Level Honolulu Center
Sun 04:30:57 PM 22.6333 -153.7167 253° West 420 483 35,000  Level Honolulu Center
Sun 04:31:56 PM 22.6000 -153.8500 255° West 420 483 35,000  Level Honolulu Center
Sun 04:32:56 PM 22.5667 -153.9667 253° West 420 483 35,000  Level Honolulu Center
Sun 04:33:57 PM 22.5167 -154.0833 245° Southwest 420 483 35,000  Level Honolulu Center
Sun 04:34:57 PM 22.4833 -154.2167 255° West 420 483 35,000  Level Honolulu Center
Sun 04:35:57 PM 22.4500 -154.3333 253° West 420 483 35,000  Level Honolulu Center
Sun 04:36:57 PM 22.4167 -154.4500 253° West 410 472 35,000  Level Honolulu Center
Sun 04:37:57 PM 22.3667 -154.5667 245° Southwest 410 472 35,000  Level Honolulu Center
Sun 04:38:57 PM 22.3333 -154.6833 253° West 410 472 35,000  Level Honolulu Center
Sun 04:39:58 PM 22.3000 -154.8000 253° West 410 472 35,000 -446 Level Honolulu Center
Sun 04:40:58 PM 22.2667 -154.9167 253° West 410 472 34,100 -1,200 Descending Honolulu Center
Sun 04:41:58 PM 22.2167 -155.0333 245° Southwest 430 495 32,600 -1,150 Descending Honolulu Center
Sun 04:42:58 PM 22.1833 -155.1500 253° West 430 495 31,800 -700 Descending Honolulu Center
Sun 04:43:58 PM 22.1500 -155.2833 255° West 440 506 31,200 -850 Descending Honolulu Center
Sun 04:44:58 PM 22.1000 -155.4000 245° Southwest 440 506 30,100 -1,050 Descending Honolulu Center
Sun 04:45:58 PM 22.0667 -155.5333 255° West 440 506 29,100 -1,300 Descending Honolulu Center
Sun 04:46:58 PM 22.0167 -155.6500 245° Southwest 440 506 27,500 -1,250 Descending Honolulu Center
Sun 04:47:58 PM 21.9833 -155.7667 253° West 430 495 26,600 -950 Descending Honolulu Center
Sun 04:48:58 PM 21.9500 -155.9000 255° West 420 483 25,600 -992 Descending Honolulu Center
Sun 04:49:59 PM 21.9000 -156.0167 245° Southwest 430 495 24,600 -992 Descending Honolulu Center
Sun 04:50:59 PM 21.8667 -156.1333 253° West 410 472 23,600 -1,000 Descending Honolulu Center
Sun 04:51:59 PM 21.8333 -156.2333 250° West 380 437 22,600 -1,000 Descending Honolulu Center
Sun 04:52:59 PM 21.8000 -156.3500 253° West 380 437 21,600 -1,000 Descending Honolulu Center
Sun 04:53:59 PM 21.7667 -156.4500 250° West 380 437 20,600 -800 Descending Honolulu Center
Sun 04:54:59 PM 21.7333 -156.5500 250° West 380 437 20,000 -1,167 Descending Honolulu Center
Sun 04:56:59 PM 21.6500 -156.7833 249° West 390 449 17,100 -1,433 Descending Honolulu Center
Sun 04:57:59 PM 21.6167 -156.8833 250° West 380 437 15,700 -1,150 Descending Honolulu Center
Sun 04:58:59 PM 21.5833 -157.0000 253° West 380 437 14,800 -942 Descending Honolulu Center
Sun 05:00:00 PM 21.5500 -157.1000 250° West 380 437 13,800 -1,041 Descending Honolulu Center
Sun 05:01:00 PM 21.5167 -157.2000 250° West 350 403 12,700 -1,000 Descending Honolulu Center
Sun 05:02:00 PM 21.4833 -157.2833 247° West 330 380 11,800 -950 Descending Honolulu Center
Sun 05:03:00 PM 21.4500 -157.3833 250° West 340 391 10,800 -900 Descending Honolulu Center
Sun 05:04:00 PM 21.4167 -157.4833 250° West 350 403 10,000 -400 Descending Honolulu Center
Sun 05:05:00 PM 21.3833 -157.5833 250° West 330 380 10,000 -100 Level Honolulu Center
Sun 05:06:00 PM 21.3500 -157.6500 242° Southwest 280 322 9,800 -850 Descending Honolulu Center
Sun 05:07:00 PM 21.3167 -157.7333 247° West 270 311 8,300 -893 Descending Honolulu Center
Sun 05:08:01 PM 21.3000 -157.8000 255° West 270 311 8,000 -248 Descending Honolulu Center
Sun 05:09:01 PM 21.2667 -157.8833 247° West 260 299 7,800 -1,300 Descending Honolulu Center
Sun 05:10:01 PM 21.2500 -157.9667 258° West 260 299 5,400 -2,250 Descending Honolulu Center
Sun 05:11:01 PM 21.2500 -158.0333 270° West 240 276 3,300 -800 Descending Honolulu Center
Sun 05:13:01 PM 21.3000 -158.1667 292° West 250 288 3,000 -100 Descending Honolulu Center
Sun 05:14:01 PM 21.3167 -158.1167 70° East 200 230 3,000 -400 Level Honolulu Center
Sun 05:15:01 PM 21.3167 -158.0500 90° East 190 219 2,200 -900 Descending Honolulu Center
Sun 05:16:01 PM 21.3167 -158.0000 90° East 170 196 1,200 -900 Descending Honolulu Center
Sun 05:17:01 PM 21.3167 -157.9500 90° East 150 173 400 -800 Descending Honolulu Center

Login

Don't have an account? Register now (free) for customized features, flight alerts, and more!